sensor_id;sensor_type;location;lat;lon;timestamp;pressure;altitude;pressure_sealevel;temperature;humidity
71778;BME280;59609;52.430;4.668;2022-08-06T00:02:25;102731.34;;;13.94;72.60
71778;BME280;59609;52.430;4.668;2022-08-06T00:04:52;102730.63;;;13.92;73.37
71778;BME280;59609;52.430;4.668;2022-08-06T00:07:17;102740.56;;;13.95;73.32
71778;BME280;59609;52.430;4.668;2022-08-06T00:09:43;102739.97;;;13.91;73.10
71778;BME280;59609;52.430;4.668;2022-08-06T00:12:08;102737.75;;;13.85;72.89
71778;BME280;59609;52.430;4.668;2022-08-06T00:14:34;102746.06;;;13.85;73.65
71778;BME280;59609;52.430;4.668;2022-08-06T00:17:00;102740.72;;;13.93;74.73
71778;BME280;59609;52.430;4.668;2022-08-06T00:19:26;102752.09;;;13.90;74.15
71778;BME280;59609;52.430;4.668;2022-08-06T00:21:51;102753.22;;;13.88;74.25
71778;BME280;59609;52.430;4.668;2022-08-06T00:24:17;102745.34;;;13.83;74.76
71778;BME280;59609;52.430;4.668;2022-08-06T00:26:43;102758.63;;;13.89;74.57
71778;BME280;59609;52.430;4.668;2022-08-06T00:29:08;102757.47;;;13.92;73.80
71778;BME280;59609;52.430;4.668;2022-08-06T00:31:34;102764.34;;;13.98;73.71
71778;BME280;59609;52.430;4.668;2022-08-06T00:33:59;102757.63;;;13.90;73.62
71778;BME280;59609;52.430;4.668;2022-08-06T00:36:27;102763.16;;;13.90;73.73
71778;BME280;59609;52.430;4.668;2022-08-06T00:38:53;102753.09;;;13.89;74.34
71778;BME280;59609;52.430;4.668;2022-08-06T00:41:20;102763.72;;;13.84;74.01
71778;BME280;59609;52.430;4.668;2022-08-06T00:43:46;102762.69;;;13.85;74.24
71778;BME280;59609;52.430;4.668;2022-08-06T00:46:11;102762.97;;;13.82;74.21
71778;BME280;59609;52.430;4.668;2022-08-06T00:48:36;102768.53;;;13.82;74.44
71778;BME280;59609;52.430;4.668;2022-08-06T00:51:02;102767.81;;;13.80;75.15
71778;BME280;59609;52.430;4.668;2022-08-06T00:53:28;102763.69;;;13.75;74.93
71778;BME280;59609;52.430;4.668;2022-08-06T00:55:53;102774.75;;;13.75;74.68
71778;BME280;59609;52.430;4.668;2022-08-06T00:58:18;102768.34;;;13.74;74.66
71778;BME280;59609;52.430;4.668;2022-08-06T01:00:44;102775.94;;;13.72;74.52
71778;BME280;59609;52.430;4.668;2022-08-06T01:03:09;102783.63;;;13.69;75.41
71778;BME280;59609;52.430;4.668;2022-08-06T01:05:36;102777.50;;;13.65;75.88
71778;BME280;59609;52.430;4.668;2022-08-06T01:08:01;102786.09;;;13.62;75.26
71778;BME280;59609;52.430;4.668;2022-08-06T01:10:27;102786.38;;;13.59;75.16
71778;BME280;59609;52.430;4.668;2022-08-06T01:12:52;102797.13;;;13.53;75.32
71778;BME280;59609;52.430;4.668;2022-08-06T01:15:18;102799.44;;;13.48;75.23
71778;BME280;59609;52.430;4.668;2022-08-06T01:17:53;102798.13;;;13.52;77.21
71778;BME280;59609;52.430;4.668;2022-08-06T01:20:38;102803.06;;;13.48;77.53
71778;BME280;59609;52.430;4.668;2022-08-06T01:28:35;102806.22;;;13.34;77.60
71778;BME280;59609;52.430;4.668;2022-08-06T01:31:09;102769.13;;;13.05;76.68
71778;BME280;59609;52.430;4.668;2022-08-06T01:33:44;102784.50;;;13.09;76.87
71778;BME280;59609;52.430;4.668;2022-08-06T01:36:20;102769.34;;;12.92;79.28
71778;BME280;59609;52.430;4.668;2022-08-06T01:38:51;102777.78;;;12.90;78.81
71778;BME280;59609;52.430;4.668;2022-08-06T01:41:27;102818.19;;;13.14;81.79
71778;BME280;59609;52.430;4.668;2022-08-06T01:44:16;102768.41;;;12.82;81.06
71778;BME280;59609;52.430;4.668;2022-08-06T01:46:54;102804.91;;;12.97;80.84
71778;BME280;59609;52.430;4.668;2022-08-06T01:49:25;102810.72;;;12.94;80.45
71778;BME280;59609;52.430;4.668;2022-08-06T01:51:57;102782.88;;;12.74;80.17
71778;BME280;59609;52.430;4.668;2022-08-06T01:54:30;102801.03;;;12.88;80.29
71778;BME280;59609;52.430;4.668;2022-08-06T01:57:03;102773.59;;;12.75;80.09
71778;BME280;59609;52.430;4.668;2022-08-06T01:59:34;102771.69;;;12.76;80.66
71778;BME280;59609;52.430;4.668;2022-08-06T02:02:06;102795.50;;;12.88;80.28
71778;BME280;59609;52.430;4.668;2022-08-06T02:04:38;102780.34;;;12.82;80.44
71778;BME280;59609;52.430;4.668;2022-08-06T02:07:08;102801.72;;;13.01;82.99
71778;BME280;59609;52.430;4.668;2022-08-06T02:09:35;102784.78;;;12.95;82.50
71778;BME280;59609;52.430;4.668;2022-08-06T02:12:07;102763.47;;;12.85;82.14
71778;BME280;59609;52.430;4.668;2022-08-06T02:14:39;102800.59;;;13.04;81.65
71778;BME280;59609;52.430;4.668;2022-08-06T02:17:06;102793.84;;;12.97;82.34
71778;BME280;59609;52.430;4.668;2022-08-06T02:19:32;102777.56;;;12.82;83.28
71778;BME280;59609;52.430;4.668;2022-08-06T02:22:01;102803.31;;;12.94;82.64
71778;BME280;59609;52.430;4.668;2022-08-06T02:24:28;102772.97;;;12.72;85.09
71778;BME280;59609;52.430;4.668;2022-08-06T02:26:55;102789.53;;;12.83;83.88
71778;BME280;59609;52.430;4.668;2022-08-06T02:29:23;102813.94;;;12.99;84.72
71778;BME280;59609;52.430;4.668;2022-08-06T02:31:49;102763.44;;;12.65;84.95
71778;BME280;59609;52.430;4.668;2022-08-06T02:34:15;102798.47;;;12.75;84.46
71778;BME280;59609;52.430;4.668;2022-08-06T02:36:44;102808.13;;;12.81;84.39
71778;BME280;59609;52.430;4.668;2022-08-06T02:39:52;102813.19;;;12.76;83.57
71778;BME280;59609;52.430;4.668;2022-08-06T02:47:35;102832.16;;;12.80;84.14
71778;BME280;59609;52.430;4.668;2022-08-06T02:50:04;102807.09;;;12.61;83.56
71778;BME280;59609;52.430;4.668;2022-08-06T02:52:43;102816.75;;;12.67;85.14
71778;BME280;59609;52.430;4.668;2022-08-06T02:55:14;102768.75;;;12.36;83.84
71778;BME280;59609;52.430;4.668;2022-08-06T02:57:48;102776.50;;;12.42;84.07
71778;BME280;59609;52.430;4.668;2022-08-06T03:00:18;102817.16;;;12.62;83.66
71778;BME280;59609;52.430;4.668;2022-08-06T03:02:45;102783.28;;;12.49;83.92
71778;BME280;59609;52.430;4.668;2022-08-06T03:05:14;102794.28;;;12.60;83.89
71778;BME280;59609;52.430;4.668;2022-08-06T03:07:40;102839.16;;;12.84;83.44
71778;BME280;59609;52.430;4.668;2022-08-06T03:10:08;102812.56;;;12.72;83.88
71778;BME280;59609;52.430;4.668;2022-08-06T03:12:38;102797.94;;;12.61;83.24
71778;BME280;59609;52.430;4.668;2022-08-06T03:15:05;102816.34;;;12.71;83.43
71778;BME280;59609;52.430;4.668;2022-08-06T03:17:32;102814.13;;;12.65;83.46
71778;BME280;59609;52.430;4.668;2022-08-06T03:20:01;102791.09;;;12.44;83.55
71778;BME280;59609;52.430;4.668;2022-08-06T03:22:30;102799.25;;;12.46;83.13
71778;BME280;59609;52.430;4.668;2022-08-06T03:24:57;102787.84;;;12.39;82.43
71778;BME280;59609;52.430;4.668;2022-08-06T03:27:24;102819.94;;;12.51;84.97
71778;BME280;59609;52.430;4.668;2022-08-06T03:29:51;102815.56;;;12.49;84.69
71778;BME280;59609;52.430;4.668;2022-08-06T03:32:18;102819.22;;;12.49;84.41
71778;BME280;59609;52.430;4.668;2022-08-06T03:34:44;102815.03;;;12.55;83.58
71778;BME280;59609;52.430;4.668;2022-08-06T03:37:12;102799.38;;;12.44;83.56
71778;BME280;59609;52.430;4.668;2022-08-06T03:39:39;102858.34;;;12.76;83.63
71778;BME280;59609;52.430;4.668;2022-08-06T03:42:06;102814.28;;;12.53;83.83
71778;BME280;59609;52.430;4.668;2022-08-06T03:44:32;102832.09;;;12.71;84.98
71778;BME280;59609;52.430;4.668;2022-08-06T03:47:06;102832.94;;;12.71;84.53
71778;BME280;59609;52.430;4.668;2022-08-06T03:49:40;102805.34;;;12.60;84.94
71778;BME280;59609;52.430;4.668;2022-08-06T03:52:06;102856.00;;;12.93;83.76
71778;BME280;59609;52.430;4.668;2022-08-06T03:54:35;102832.56;;;12.76;83.19
71778;BME280;59609;52.430;4.668;2022-08-06T03:57:06;102837.09;;;12.77;83.33
71778;BME280;59609;52.430;4.668;2022-08-06T03:59:34;102848.88;;;12.79;83.40
71778;BME280;59609;52.430;4.668;2022-08-06T04:02:02;102866.81;;;12.84;82.52
71778;BME280;59609;52.430;4.668;2022-08-06T04:04:30;102871.50;;;12.84;83.19
71778;BME280;59609;52.430;4.668;2022-08-06T04:06:57;102850.41;;;12.72;85.00
71778;BME280;59609;52.430;4.668;2022-08-06T04:09:25;102830.50;;;12.57;86.40
71778;BME280;59609;52.430;4.668;2022-08-06T04:11:54;102822.34;;;12.45;87.48
71778;BME280;59609;52.430;4.668;2022-08-06T04:14:22;102863.91;;;12.65;87.38
71778;BME280;59609;52.430;4.668;2022-08-06T04:16:49;102868.16;;;12.69;86.74
71778;BME280;59609;52.430;4.668;2022-08-06T04:19:16;102846.22;;;12.57;87.08
71778;BME280;59609;52.430;4.668;2022-08-06T04:21:44;102856.47;;;12.66;87.11
71778;BME280;59609;52.430;4.668;2022-08-06T04:24:10;102855.34;;;12.68;86.06
71778;BME280;59609;52.430;4.668;2022-08-06T04:26:38;102824.34;;;12.54;86.03
71778;BME280;59609;52.430;4.668;2022-08-06T04:29:12;102856.84;;;12.72;86.26
71778;BME280;59609;52.430;4.668;2022-08-06T04:31:40;102853.34;;;12.70;86.50
71778;BME280;59609;52.430;4.668;2022-08-06T04:34:08;102846.84;;;12.60;85.26
71778;BME280;59609;52.430;4.668;2022-08-06T04:36:35;102847.72;;;12.61;85.38
71778;BME280;59609;52.430;4.668;2022-08-06T04:39:00;102846.41;;;12.65;85.50
71778;BME280;59609;52.430;4.668;2022-08-06T04:41:26;102831.25;;;12.59;85.63
71778;BME280;59609;52.430;4.668;2022-08-06T04:43:52;102857.34;;;12.77;86.63
71778;BME280;59609;52.430;4.668;2022-08-06T04:46:19;102869.81;;;12.93;88.34
71778;BME280;59609;52.430;4.668;2022-08-06T04:48:44;102849.22;;;12.85;88.83
71778;BME280;59609;52.430;4.668;2022-08-06T04:51:13;102842.34;;;12.80;88.39
71778;BME280;59609;52.430;4.668;2022-08-06T04:53:40;102842.09;;;12.83;87.71
71778;BME280;59609;52.430;4.668;2022-08-06T04:56:07;102836.81;;;12.80;87.71
71778;BME280;59609;52.430;4.668;2022-08-06T04:58:35;102862.94;;;12.87;89.08
71778;BME280;59609;52.430;4.668;2022-08-06T05:01:01;102846.47;;;12.85;88.08
71778;BME280;59609;52.430;4.668;2022-08-06T05:03:28;102886.19;;;13.58;85.67
71778;BME280;59609;52.430;4.668;2022-08-06T05:06:02;102843.13;;;14.05;83.71
71778;BME280;59609;52.430;4.668;2022-08-06T05:08:30;102866.38;;;14.63;81.02
71778;BME280;59609;52.430;4.668;2022-08-06T05:11:02;102845.34;;;14.70;79.81
71778;BME280;59609;52.430;4.668;2022-08-06T05:13:33;102846.53;;;14.77;79.41
71778;BME280;59609;52.430;4.668;2022-08-06T05:16:06;102837.47;;;14.65;79.80
71778;BME280;59609;52.430;4.668;2022-08-06T05:18:58;102880.97;;;14.65;80.30
71778;BME280;59609;52.430;4.668;2022-08-06T05:21:36;102843.09;;;14.35;80.52
71778;BME280;59609;52.430;4.668;2022-08-06T05:24:07;102856.13;;;14.44;80.53
71778;BME280;59609;52.430;4.668;2022-08-06T05:26:36;102880.25;;;14.91;80.10
71778;BME280;59609;52.430;4.668;2022-08-06T05:29:02;102893.56;;;15.36;78.66
71778;BME280;59609;52.430;4.668;2022-08-06T05:31:37;102854.06;;;15.42;76.88
71778;BME280;59609;52.430;4.668;2022-08-06T05:34:09;102849.69;;;15.39;75.26
71778;BME280;59609;52.430;4.668;2022-08-06T05:36:41;102855.13;;;15.41;75.18
71778;BME280;59609;52.430;4.668;2022-08-06T05:39:15;102866.06;;;15.42;74.44
71778;BME280;59609;52.430;4.668;2022-08-06T05:41:41;102861.06;;;15.46;74.05
71778;BME280;59609;52.430;4.668;2022-08-06T05:44:10;102862.97;;;15.45;72.82
71778;BME280;59609;52.430;4.668;2022-08-06T05:46:51;102890.44;;;15.77;72.11
71778;BME280;59609;52.430;4.668;2022-08-06T05:49:26;102883.69;;;15.80;72.10
71778;BME280;59609;52.430;4.668;2022-08-06T05:52:31;102920.47;;;16.11;71.38
71778;BME280;59609;52.430;4.668;2022-08-06T05:55:22;102901.16;;;16.09;70.07
71778;BME280;59609;52.430;4.668;2022-08-06T05:58:00;102869.66;;;16.09;68.33
71778;BME280;59609;52.430;4.668;2022-08-06T06:00:42;102875.63;;;16.23;66.65
71778;BME280;59609;52.430;4.668;2022-08-06T06:03:42;102880.50;;;16.39;67.70
71778;BME280;59609;52.430;4.668;2022-08-06T06:06:20;102873.13;;;16.47;67.50
71778;BME280;59609;52.430;4.668;2022-08-06T06:09:18;102889.56;;;16.68;66.28
71778;BME280;59609;52.430;4.668;2022-08-06T06:14:50;102884.75;;;17.06;65.69
71778;BME280;59609;52.430;4.668;2022-08-06T06:24:32;102902.63;;;17.56;62.61
71778;BME280;59609;52.430;4.668;2022-08-06T06:57:34;102946.19;;;19.18;53.79
71778;BME280;59609;52.430;4.668;2022-08-06T07:00:03;102956.88;;;19.39;54.25
71778;BME280;59609;52.430;4.668;2022-08-06T07:02:31;102955.69;;;19.49;55.49
71778;BME280;59609;52.430;4.668;2022-08-06T07:05:00;102959.72;;;19.71;53.55
71778;BME280;59609;52.430;4.668;2022-08-06T07:07:28;102963.91;;;19.67;53.70
71778;BME280;59609;52.430;4.668;2022-08-06T07:09:55;102951.66;;;19.68;51.93
71778;BME280;59609;52.430;4.668;2022-08-06T07:12:21;102968.09;;;19.79;52.42
71778;BME280;59609;52.430;4.668;2022-08-06T07:14:50;102959.00;;;19.69;53.15
71778;BME280;59609;52.430;4.668;2022-08-06T07:17:18;102978.59;;;19.93;53.26
71778;BME280;59609;52.430;4.668;2022-08-06T07:19:47;102966.53;;;19.93;53.70
71778;BME280;59609;52.430;4.668;2022-08-06T07:22:14;102971.38;;;20.15;53.27
71778;BME280;59609;52.430;4.668;2022-08-06T07:24:41;102970.31;;;20.24;51.72
71778;BME280;59609;52.430;4.668;2022-08-06T07:27:08;102984.19;;;19.85;52.56
71778;BME280;59609;52.430;4.668;2022-08-06T07:29:34;102983.50;;;19.67;52.54
71778;BME280;59609;52.430;4.668;2022-08-06T07:32:00;102985.59;;;19.81;52.97
71778;BME280;59609;52.430;4.668;2022-08-06T07:34:27;102988.72;;;20.11;51.84
71778;BME280;59609;52.430;4.668;2022-08-06T07:36:54;102993.44;;;20.34;50.78
71778;BME280;59609;52.430;4.668;2022-08-06T07:39:33;102990.34;;;20.68;49.29
71778;BME280;59609;52.430;4.668;2022-08-06T07:42:07;102996.88;;;20.52;49.86
71778;BME280;59609;52.430;4.668;2022-08-06T07:44:35;102996.34;;;20.57;50.20
71778;BME280;59609;52.430;4.668;2022-08-06T07:47:02;102992.00;;;20.85;49.66
71778;BME280;59609;52.430;4.668;2022-08-06T07:49:40;102989.34;;;20.92;49.37
71778;BME280;59609;52.430;4.668;2022-08-06T07:52:07;102984.13;;;20.26;50.41
71778;BME280;59609;52.430;4.668;2022-08-06T07:54:34;103008.13;;;19.96;50.48
71778;BME280;59609;52.430;4.668;2022-08-06T07:57:00;102999.94;;;19.86;49.11
71778;BME280;59609;52.430;4.668;2022-08-06T07:59:26;103006.03;;;19.66;51.61
71778;BME280;59609;52.430;4.668;2022-08-06T08:01:52;103015.47;;;19.40;52.73
71778;BME280;59609;52.430;4.668;2022-08-06T08:04:18;103013.09;;;19.20;53.60
71778;BME280;59609;52.430;4.668;2022-08-06T08:07:04;103011.25;;;18.86;54.55
71778;BME280;59609;52.430;4.668;2022-08-06T08:09:30;103012.13;;;18.87;55.05
71778;BME280;59609;52.430;4.668;2022-08-06T08:11:57;103008.22;;;19.30;54.03
71778;BME280;59609;52.430;4.668;2022-08-06T08:14:22;103005.19;;;19.73;52.50
71778;BME280;59609;52.430;4.668;2022-08-06T08:16:50;103005.16;;;19.65;50.86
71778;BME280;59609;52.430;4.668;2022-08-06T08:19:23;103016.63;;;19.30;51.22
71778;BME280;59609;52.430;4.668;2022-08-06T08:21:52;103019.13;;;18.91;52.72
71778;BME280;59609;52.430;4.668;2022-08-06T08:24:18;103032.44;;;18.63;54.57
71778;BME280;59609;52.430;4.668;2022-08-06T08:26:43;103025.06;;;18.88;54.04
71778;BME280;59609;52.430;4.668;2022-08-06T08:29:10;103016.97;;;19.27;52.40
71778;BME280;59609;52.430;4.668;2022-08-06T08:31:36;103022.44;;;19.52;51.08
71778;BME280;59609;52.430;4.668;2022-08-06T08:34:01;103025.09;;;19.78;50.57
71778;BME280;59609;52.430;4.668;2022-08-06T08:36:26;103018.81;;;20.33;50.43
71778;BME280;59609;52.430;4.668;2022-08-06T08:38:52;103016.63;;;20.67;48.14
71778;BME280;59609;52.430;4.668;2022-08-06T08:41:34;103017.28;;;21.16;44.05
71778;BME280;59609;52.430;4.668;2022-08-06T08:44:06;103016.75;;;21.21;43.95
71778;BME280;59609;52.430;4.668;2022-08-06T08:46:38;103016.44;;;21.38;44.38
71778;BME280;59609;52.430;4.668;2022-08-06T08:49:06;103013.84;;;21.82;44.56
71778;BME280;59609;52.430;4.668;2022-08-06T08:51:37;103012.50;;;21.78;43.33
71778;BME280;59609;52.430;4.668;2022-08-06T08:54:06;103010.59;;;22.01;43.21
71778;BME280;59609;52.430;4.668;2022-08-06T08:56:33;103009.88;;;21.99;41.36
71778;BME280;59609;52.430;4.668;2022-08-06T08:59:00;103020.34;;;21.83;41.30
71778;BME280;59609;52.430;4.668;2022-08-06T09:01:26;103017.75;;;21.81;42.02
71778;BME280;59609;52.430;4.668;2022-08-06T09:03:51;103003.88;;;21.80;42.50
71778;BME280;59609;52.430;4.668;2022-08-06T09:06:17;103010.81;;;21.92;41.67
71778;BME280;59609;52.430;4.668;2022-08-06T09:08:44;103007.78;;;22.01;40.34
71778;BME280;59609;52.430;4.668;2022-08-06T09:11:12;103016.03;;;22.18;42.69
71778;BME280;59609;52.430;4.668;2022-08-06T09:13:37;103022.97;;;22.44;41.90
71778;BME280;59609;52.430;4.668;2022-08-06T09:16:03;103016.84;;;22.55;41.09
71778;BME280;59609;52.430;4.668;2022-08-06T09:18:29;103018.78;;;22.40;41.83
71778;BME280;59609;52.430;4.668;2022-08-06T09:20:54;103021.78;;;21.56;44.51
71778;BME280;59609;52.430;4.668;2022-08-06T09:23:20;103029.53;;;20.84;45.19
71778;BME280;59609;52.430;4.668;2022-08-06T09:25:50;103033.13;;;20.46;44.95
71778;BME280;59609;52.430;4.668;2022-08-06T09:28:31;103029.31;;;20.15;47.51
71778;BME280;59609;52.430;4.668;2022-08-06T09:30:58;103019.66;;;20.96;46.37
71778;BME280;59609;52.430;4.668;2022-08-06T09:33:24;103023.03;;;21.53;44.68
71778;BME280;59609;52.430;4.668;2022-08-06T09:36:02;103026.81;;;21.38;44.98
71778;BME280;59609;52.430;4.668;2022-08-06T09:38:28;103022.34;;;21.51;44.47
71778;BME280;59609;52.430;4.668;2022-08-06T09:43:28;103026.44;;;21.41;44.50
71778;BME280;59609;52.430;4.668;2022-08-06T09:45:54;103031.03;;;21.65;43.94
71778;BME280;59609;52.430;4.668;2022-08-06T09:48:19;103034.31;;;22.14;45.74
71778;BME280;59609;52.430;4.668;2022-08-06T09:50:45;103029.44;;;22.59;41.62
71778;BME280;59609;52.430;4.668;2022-08-06T09:53:12;103019.88;;;22.83;41.51
71778;BME280;59609;52.430;4.668;2022-08-06T09:55:38;103028.91;;;22.79;40.23
71778;BME280;59609;52.430;4.668;2022-08-06T09:58:03;103035.34;;;22.50;41.64
71778;BME280;59609;52.430;4.668;2022-08-06T10:00:33;103034.53;;;21.89;43.54
71778;BME280;59609;52.430;4.668;2022-08-06T10:03:02;103031.34;;;21.92;44.18
71778;BME280;59609;52.430;4.668;2022-08-06T10:05:28;103022.84;;;21.78;42.70
71778;BME280;59609;52.430;4.668;2022-08-06T10:08:03;103040.50;;;21.86;42.62
71778;BME280;59609;52.430;4.668;2022-08-06T10:13:20;103040.22;;;22.85;42.78
71778;BME280;59609;52.430;4.668;2022-08-06T10:15:47;103034.03;;;22.90;41.93
71778;BME280;59609;52.430;4.668;2022-08-06T10:18:34;103037.59;;;23.28;40.53
71778;BME280;59609;52.430;4.668;2022-08-06T10:21:08;103038.00;;;22.66;42.86
71778;BME280;59609;52.430;4.668;2022-08-06T10:23:36;103033.91;;;22.54;42.74
71778;BME280;59609;52.430;4.668;2022-08-06T10:26:06;103040.81;;;22.66;41.01
71778;BME280;59609;52.430;4.668;2022-08-06T10:28:33;103042.25;;;23.06;40.77
71778;BME280;59609;52.430;4.668;2022-08-06T10:31:08;103036.66;;;23.56;39.47
71778;BME280;59609;52.430;4.668;2022-08-06T10:33:44;103044.00;;;23.22;39.68
71778;BME280;59609;52.430;4.668;2022-08-06T10:36:19;103036.88;;;23.26;39.24
71778;BME280;59609;52.430;4.668;2022-08-06T10:38:49;103054.53;;;22.46;40.89
71778;BME280;59609;52.430;4.668;2022-08-06T10:41:14;103055.88;;;22.36;41.55
71778;BME280;59609;52.430;4.668;2022-08-06T10:43:40;103058.47;;;22.89;41.17
71778;BME280;59609;52.430;4.668;2022-08-06T10:46:08;103039.59;;;23.34;40.56
71778;BME280;59609;52.430;4.668;2022-08-06T10:48:35;103055.13;;;23.30;39.46
71778;BME280;59609;52.430;4.668;2022-08-06T10:51:05;103048.28;;;23.18;40.12
71778;BME280;59609;52.430;4.668;2022-08-06T10:53:32;103045.81;;;23.65;39.50
71778;BME280;59609;52.430;4.668;2022-08-06T10:56:05;103049.16;;;22.89;41.98
71778;BME280;59609;52.430;4.668;2022-08-06T10:58:34;103044.91;;;22.78;41.63
71778;BME280;59609;52.430;4.668;2022-08-06T11:01:03;103042.69;;;22.88;40.97
71778;BME280;59609;52.430;4.668;2022-08-06T11:03:55;103036.22;;;23.24;42.09
71778;BME280;59609;52.430;4.668;2022-08-06T11:14:58;103034.84;;;24.34;38.33
71778;BME280;59609;52.430;4.668;2022-08-06T11:17:25;103025.56;;;24.40;37.32
71778;BME280;59609;52.430;4.668;2022-08-06T11:19:50;103028.47;;;24.53;37.88
71778;BME280;59609;52.430;4.668;2022-08-06T11:22:51;103024.72;;;24.46;37.09
71778;BME280;59609;52.430;4.668;2022-08-06T11:25:16;103029.75;;;24.50;37.18
71778;BME280;59609;52.430;4.668;2022-08-06T11:30:15;103028.94;;;24.29;37.09
71778;BME280;59609;52.430;4.668;2022-08-06T11:32:48;103033.78;;;24.69;36.75
71778;BME280;59609;52.430;4.668;2022-08-06T11:37:58;103024.38;;;24.55;37.08
71778;BME280;59609;52.430;4.668;2022-08-06T11:40:24;103034.94;;;24.19;37.56
71778;BME280;59609;52.430;4.668;2022-08-06T11:42:50;103030.44;;;24.25;38.69
71778;BME280;59609;52.430;4.668;2022-08-06T11:45:16;103022.50;;;24.35;38.70
71778;BME280;59609;52.430;4.668;2022-08-06T11:48:07;103027.44;;;24.60;37.74
71778;BME280;59609;52.430;4.668;2022-08-06T11:50:32;103022.19;;;24.51;38.51
71778;BME280;59609;52.430;4.668;2022-08-06T11:52:58;103028.16;;;24.14;38.29
71778;BME280;59609;52.430;4.668;2022-08-06T11:55:24;103017.38;;;24.45;38.45
71778;BME280;59609;52.430;4.668;2022-08-06T11:58:15;103024.22;;;24.91;37.49
71778;BME280;59609;52.430;4.668;2022-08-06T12:00:58;103023.53;;;24.55;38.34
71778;BME280;59609;52.430;4.668;2022-08-06T12:03:40;103021.34;;;24.85;37.84
71778;BME280;59609;52.430;4.668;2022-08-06T12:06:25;103026.03;;;23.23;39.74
71778;BME280;59609;52.430;4.668;2022-08-06T12:09:10;103011.88;;;23.16;40.32
71778;BME280;59609;52.430;4.668;2022-08-06T12:11:36;103008.13;;;23.81;39.26
71778;BME280;59609;52.430;4.668;2022-08-06T12:14:02;103018.56;;;24.08;39.01
71778;BME280;59609;52.430;4.668;2022-08-06T12:16:30;103012.19;;;23.57;39.62
71778;BME280;59609;52.430;4.668;2022-08-06T12:18:56;103020.56;;;23.93;38.61
71778;BME280;59609;52.430;4.668;2022-08-06T12:21:22;103018.91;;;24.47;38.83
71778;BME280;59609;52.430;4.668;2022-08-06T12:23:50;103013.59;;;25.00;38.13
71778;BME280;59609;52.430;4.668;2022-08-06T12:26:16;103016.53;;;24.51;38.25
71778;BME280;59609;52.430;4.668;2022-08-06T12:28:42;103019.28;;;24.72;37.52
71778;BME280;59609;52.430;4.668;2022-08-06T12:31:08;103011.03;;;25.59;35.65
71778;BME280;59609;52.430;4.668;2022-08-06T12:33:42;103018.03;;;24.47;38.04
71778;BME280;59609;52.430;4.668;2022-08-06T12:36:08;103010.50;;;24.54;37.78
71778;BME280;59609;52.430;4.668;2022-08-06T12:38:33;103011.00;;;23.87;39.50
71778;BME280;59609;52.430;4.668;2022-08-06T12:41:05;103006.69;;;24.68;38.36
71778;BME280;59609;52.430;4.668;2022-08-06T12:43:32;103003.44;;;24.37;38.16
71778;BME280;59609;52.430;4.668;2022-08-06T12:45:59;103001.53;;;25.19;36.44
71778;BME280;59609;52.430;4.668;2022-08-06T12:48:24;103004.38;;;24.78;37.01
71778;BME280;59609;52.430;4.668;2022-08-06T12:51:01;103015.38;;;24.73;36.09
71778;BME280;59609;52.430;4.668;2022-08-06T12:53:26;103006.31;;;24.78;36.91
71778;BME280;59609;52.430;4.668;2022-08-06T12:55:53;103000.19;;;24.40;37.60
71778;BME280;59609;52.430;4.668;2022-08-06T12:58:42;102997.28;;;24.54;38.07
71778;BME280;59609;52.430;4.668;2022-08-06T13:01:13;103003.25;;;24.79;37.10
71778;BME280;59609;52.430;4.668;2022-08-06T13:03:41;102992.16;;;25.12;35.74
71778;BME280;59609;52.430;4.668;2022-08-06T13:06:08;102995.13;;;25.45;35.71
71778;BME280;59609;52.430;4.668;2022-08-06T13:08:35;102989.94;;;24.94;34.52
71778;BME280;59609;52.430;4.668;2022-08-06T13:11:02;102990.19;;;25.60;34.54
71778;BME280;59609;52.430;4.668;2022-08-06T13:13:41;102986.28;;;25.68;33.75
71778;BME280;59609;52.430;4.668;2022-08-06T13:16:12;102999.63;;;25.33;34.26
71778;BME280;59609;52.430;4.668;2022-08-06T13:18:39;102988.81;;;24.54;34.95
71778;BME280;59609;52.430;4.668;2022-08-06T13:23:45;103000.25;;;24.19;35.28
71778;BME280;59609;52.430;4.668;2022-08-06T13:28:37;102984.66;;;25.39;35.39
71778;BME280;59609;52.430;4.668;2022-08-06T13:31:17;102989.91;;;25.42;35.16
71778;BME280;59609;52.430;4.668;2022-08-06T13:33:42;102985.97;;;25.43;34.61
71778;BME280;59609;52.430;4.668;2022-08-06T13:36:08;102987.81;;;24.75;34.99
71778;BME280;59609;52.430;4.668;2022-08-06T13:38:36;102984.81;;;25.91;34.40
71778;BME280;59609;52.430;4.668;2022-08-06T13:41:02;102988.28;;;24.79;35.34
71778;BME280;59609;52.430;4.668;2022-08-06T13:43:42;102991.63;;;25.49;35.09
71778;BME280;59609;52.430;4.668;2022-08-06T13:46:14;102983.13;;;25.36;35.90
71778;BME280;59609;52.430;4.668;2022-08-06T13:48:52;102985.63;;;25.59;35.93
71778;BME280;59609;52.430;4.668;2022-08-06T13:51:19;102978.47;;;25.09;37.17
71778;BME280;59609;52.430;4.668;2022-08-06T13:53:45;102985.91;;;25.17;35.24
71778;BME280;59609;52.430;4.668;2022-08-06T13:56:13;102979.75;;;25.54;34.65
71778;BME280;59609;52.430;4.668;2022-08-06T13:58:39;102978.47;;;25.76;34.89
71778;BME280;59609;52.430;4.668;2022-08-06T14:01:05;102986.84;;;24.89;35.49
71778;BME280;59609;52.430;4.668;2022-08-06T14:03:30;102984.00;;;25.30;35.89
71778;BME280;59609;52.430;4.668;2022-08-06T14:05:56;102986.84;;;24.89;36.43
71778;BME280;59609;52.430;4.668;2022-08-06T14:08:21;102979.63;;;24.46;37.64
71778;BME280;59609;52.430;4.668;2022-08-06T14:10:46;102984.06;;;24.55;37.45
71778;BME280;59609;52.430;4.668;2022-08-06T14:13:12;102982.16;;;25.03;35.65
71778;BME280;59609;52.430;4.668;2022-08-06T14:15:50;102989.34;;;24.71;36.87
71778;BME280;59609;52.430;4.668;2022-08-06T14:18:18;102983.16;;;24.89;36.88
71778;BME280;59609;52.430;4.668;2022-08-06T14:20:44;102984.75;;;24.98;35.33